createdAt,value
2018-03-11T00:00:02.622Z,9.10
2018-03-11T00:03:12.939Z,9.10
2018-03-11T00:06:26.220Z,9.10
2018-03-11T00:09:37.171Z,9.00
2018-03-11T00:12:47.646Z,9.00
2018-03-11T00:15:57.600Z,9.00
2018-03-11T00:19:14.949Z,9.00
2018-03-11T00:22:25.506Z,8.90
2018-03-11T00:25:35.324Z,8.90
2018-03-11T00:28:45.477Z,8.80
2018-03-11T00:31:55.910Z,8.80
2018-03-11T00:35:06.442Z,8.80
2018-03-11T00:38:16.459Z,8.80
2018-03-11T00:41:26.790Z,8.80
2018-03-11T00:44:37.583Z,8.90
2018-03-11T00:47:48.694Z,8.90
2018-03-11T00:50:58.748Z,8.80
2018-03-11T00:54:09.105Z,8.90
2018-03-11T00:57:19.595Z,8.90
2018-03-11T01:00:29.644Z,8.90
2018-03-11T01:03:40.407Z,8.90
2018-03-11T01:06:50.552Z,8.90
2018-03-11T01:10:01.073Z,8.90
2018-03-11T01:13:11.781Z,8.90
2018-03-11T01:16:21.652Z,8.90
2018-03-11T01:19:32.471Z,8.80
2018-03-11T01:22:42.851Z,8.80
2018-03-11T01:25:53.075Z,8.90
2018-03-11T01:29:03.075Z,8.80
2018-03-11T01:32:13.668Z,8.80
2018-03-11T01:35:24.008Z,8.80
2018-03-11T01:38:34.290Z,8.80
2018-03-11T01:41:44.779Z,8.70
2018-03-11T01:44:54.492Z,8.70
2018-03-11T01:48:04.416Z,8.70
2018-03-11T01:51:14.304Z,8.70
2018-03-11T01:54:24.396Z,8.70
2018-03-11T01:57:34.558Z,8.70
2018-03-11T02:00:44.527Z,8.70
2018-03-11T02:03:54.677Z,8.70
2018-03-11T02:07:04.240Z,8.70
2018-03-11T02:10:14.649Z,8.70
2018-03-11T02:13:24.581Z,8.70
2018-03-11T02:16:35.036Z,8.70
2018-03-11T02:19:44.989Z,8.70
2018-03-11T02:22:55.158Z,8.80
2018-03-11T02:26:05.169Z,8.70
2018-03-11T02:29:16.161Z,8.70
2018-03-11T02:32:26.472Z,8.70
2018-03-11T02:35:36.999Z,8.70
2018-03-11T02:38:48.030Z,8.70
2018-03-11T02:41:58.448Z,8.70
2018-03-11T02:45:08.731Z,8.70
2018-03-11T02:48:19.256Z,8.70
2018-03-11T02:51:29.816Z,8.60
2018-03-11T02:54:40.887Z,8.70
2018-03-11T02:57:50.757Z,8.60
2018-03-11T03:01:00.562Z,8.60
2018-03-11T03:04:10.659Z,8.60
2018-03-11T03:07:20.650Z,8.60
2018-03-11T03:10:30.456Z,8.60
2018-03-11T03:13:40.558Z,8.60
2018-03-11T03:16:50.522Z,8.60
2018-03-11T03:20:01.490Z,8.60
2018-03-11T03:23:11.702Z,8.60
2018-03-11T03:26:21.613Z,8.60
2018-03-11T03:29:31.788Z,8.60
2018-03-11T03:32:41.850Z,8.60
2018-03-11T03:35:51.925Z,8.60
2018-03-11T03:39:03.224Z,8.60
2018-03-11T03:42:13.734Z,8.60
2018-03-11T03:45:24.255Z,8.50
2018-03-11T03:48:35.239Z,8.40
2018-03-11T03:51:45.775Z,8.40
2018-03-11T03:54:55.885Z,8.40
2018-03-11T03:58:05.923Z,8.30
2018-03-11T04:01:16.237Z,8.20
2018-03-11T04:04:26.475Z,8.20
2018-03-11T04:07:36.911Z,8.20
2018-03-11T04:10:47.300Z,8.20
2018-03-11T04:13:57.396Z,8.10
2018-03-11T04:17:07.598Z,8.20
2018-03-11T04:20:17.994Z,8.10
2018-03-11T04:23:28.066Z,8.10
2018-03-11T04:26:38.394Z,8.20
2018-03-11T04:29:48.092Z,8.20
2018-03-11T04:32:58.674Z,8.20
2018-03-11T04:36:08.892Z,8.20
2018-03-11T04:39:18.875Z,8.20
2018-03-11T04:42:29.932Z,8.20
2018-03-11T04:45:40.386Z,8.20
2018-03-11T04:48:50.326Z,8.20
2018-03-11T04:52:00.328Z,8.20
2018-03-11T04:55:10.382Z,8.20
2018-03-11T04:58:20.476Z,8.20
2018-03-11T05:01:30.562Z,8.30
2018-03-11T05:04:40.713Z,8.20
2018-03-11T05:07:51.165Z,8.30
2018-03-11T05:11:01.008Z,8.30
2018-03-11T05:14:11.452Z,8.30
2018-03-11T05:17:22.111Z,8.30
2018-03-11T05:20:32.962Z,8.30
2018-03-11T05:23:44.469Z,8.40
2018-03-11T05:26:54.338Z,8.30
2018-03-11T05:30:04.248Z,8.30
2018-03-11T05:33:14.991Z,8.40
2018-03-11T05:36:25.099Z,8.40
2018-03-11T05:39:35.475Z,8.40
2018-03-11T05:42:45.739Z,8.30
2018-03-11T05:45:55.739Z,8.30
2018-03-11T05:49:05.872Z,8.30
2018-03-11T05:52:17.009Z,8.10
2018-03-11T05:55:27.467Z,8.10
2018-03-11T05:58:37.694Z,8.10
2018-03-11T06:01:48.942Z,8.10
2018-03-11T06:05:00.219Z,8.00
2018-03-11T06:08:10.866Z,7.90
2018-03-11T06:11:20.934Z,7.90
2018-03-11T06:14:31.072Z,7.80
2018-03-11T06:17:41.310Z,7.80
2018-03-11T06:20:51.331Z,7.90
2018-03-11T06:24:01.397Z,7.90
2018-03-11T06:27:11.494Z,7.90
2018-03-11T06:30:21.716Z,7.90
2018-03-11T06:33:32.324Z,7.90
2018-03-11T06:36:42.403Z,7.80
2018-03-11T06:39:52.299Z,7.90
2018-03-11T06:43:02.539Z,7.90
2018-03-11T06:46:12.427Z,8.00
2018-03-11T06:49:22.268Z,8.10
2018-03-11T06:52:33.137Z,8.30
2018-03-11T06:55:43.548Z,8.20
2018-03-11T06:58:54.422Z,8.40
2018-03-11T07:02:04.842Z,8.40
2018-03-11T07:05:14.925Z,8.50
2018-03-11T07:08:25.255Z,8.60
2018-03-11T07:11:36.568Z,8.80
2018-03-11T07:14:46.812Z,8.80
2018-03-11T07:17:57.049Z,8.90
2018-03-11T07:21:07.678Z,8.90
2018-03-11T07:24:17.764Z,9.00
2018-03-11T07:27:28.732Z,9.30
2018-03-11T07:30:38.476Z,9.30
2018-03-11T07:33:49.139Z,9.40
2018-03-11T07:36:59.545Z,9.50
2018-03-11T07:40:10.215Z,9.60
2018-03-11T07:43:20.525Z,9.70
2018-03-11T07:46:30.636Z,9.80
2018-03-11T07:49:43.665Z,9.90
2018-03-11T07:52:55.085Z,10.00
2018-03-11T07:56:05.447Z,10.20
2018-03-11T07:59:17.194Z,10.40
2018-03-11T08:02:27.765Z,10.30
2018-03-11T08:05:38.531Z,10.50
2018-03-11T08:08:48.602Z,10.60
2018-03-11T08:12:02.506Z,10.70
2018-03-11T08:15:13.420Z,10.80
2018-03-11T08:18:23.491Z,11.00
2018-03-11T08:21:37.145Z,11.10
2018-03-11T08:24:47.532Z,11.30
2018-03-11T08:28:00.258Z,11.40
2018-03-11T08:31:12.532Z,11.60
2018-03-11T08:34:24.077Z,11.70
2018-03-11T08:37:34.673Z,11.80
2018-03-11T08:40:46.137Z,12.00
2018-03-11T08:43:57.688Z,12.00
2018-03-11T08:47:07.809Z,12.10
2018-03-11T08:50:18.173Z,12.20
2018-03-11T08:53:28.496Z,12.30
2018-03-11T08:56:38.720Z,12.40
2018-03-11T08:59:50.030Z,12.70
2018-03-11T09:03:00.381Z,12.70
2018-03-11T09:06:10.799Z,12.80
2018-03-11T09:09:22.497Z,12.90
2018-03-11T09:12:33.716Z,13.20
2018-03-11T09:15:44.721Z,13.40
2018-03-11T09:18:55.658Z,13.30
2018-03-11T09:22:06.121Z,13.40
2018-03-11T09:25:16.709Z,13.50
2018-03-11T09:28:27.295Z,13.70
2018-03-11T09:31:37.414Z,13.70
2018-03-11T09:34:47.375Z,13.80
2018-03-11T09:37:58.396Z,14.00
2018-03-11T09:41:08.706Z,14.00
2018-03-11T09:44:19.417Z,14.10
2018-03-11T09:47:30.145Z,14.30
2018-03-11T09:50:40.354Z,14.30
2018-03-11T09:53:51.994Z,15.80
2018-03-11T09:57:02.753Z,14.50
2018-03-11T10:00:13.441Z,14.70
2018-03-11T10:03:23.397Z,14.80
2018-03-11T10:06:33.575Z,14.80
2018-03-11T10:09:43.635Z,14.90
2018-03-11T10:12:53.480Z,14.90
2018-03-11T10:16:04.022Z,15.00
2018-03-11T10:19:14.158Z,15.00
2018-03-11T10:22:25.086Z,15.40
2018-03-11T10:25:36.181Z,15.30
2018-03-11T10:28:46.609Z,15.50
2018-03-11T10:32:01.140Z,15.60
2018-03-11T10:35:12.074Z,15.90
2018-03-11T10:38:23.578Z,16.10
2018-03-11T10:41:34.605Z,16.20
2018-03-11T10:44:45.150Z,16.20
2018-03-11T10:47:55.467Z,16.20
2018-03-11T10:51:05.499Z,16.10
2018-03-11T10:54:15.436Z,16.30
2018-03-11T10:57:26.184Z,16.50
2018-03-11T11:00:41.777Z,16.60
2018-03-11T11:03:52.915Z,16.80
2018-03-11T11:07:03.672Z,17.00
2018-03-11T11:10:13.672Z,17.00
2018-03-11T11:13:23.557Z,17.10
2018-03-11T11:16:33.618Z,17.20
2018-03-11T11:19:44.324Z,17.30
2018-03-11T11:22:54.339Z,17.20
2018-03-11T11:26:04.188Z,17.30
2018-03-11T11:29:14.718Z,17.40
2018-03-11T11:32:24.930Z,17.40
2018-03-11T11:35:35.998Z,17.50
2018-03-11T11:38:46.233Z,17.50
2018-03-11T11:41:56.172Z,17.50
2018-03-11T11:45:06.921Z,17.70
2018-03-11T11:48:16.862Z,17.70
2018-03-11T11:51:27.584Z,17.80
2018-03-11T11:54:38.553Z,17.90
2018-03-11T11:57:49.397Z,17.90
2018-03-11T12:00:59.641Z,17.90
2018-03-11T12:04:10.434Z,17.90
2018-03-11T12:07:23.168Z,18.10
2018-03-11T12:10:34.370Z,18.20
2018-03-11T12:13:45.098Z,18.30
2018-03-11T12:16:55.563Z,18.30
2018-03-11T12:20:07.086Z,18.20
2018-03-11T12:23:17.517Z,18.30
2018-03-11T12:26:28.200Z,18.40
2018-03-11T12:29:38.921Z,18.50
2018-03-11T12:32:49.667Z,18.30
2018-03-11T12:36:00.268Z,18.30
2018-03-11T12:39:10.846Z,18.30
2018-03-11T12:42:21.047Z,18.20
2018-03-11T12:45:31.693Z,18.30
2018-03-11T12:48:42.350Z,18.30
2018-03-11T12:51:53.204Z,18.10
2018-03-11T12:55:04.295Z,18.10
2018-03-11T12:58:14.146Z,18.10
2018-03-11T13:01:24.969Z,18.00
2018-03-11T13:04:35.619Z,17.90
2018-03-11T13:07:46.373Z,18.10
2018-03-11T13:10:58.809Z,18.10
2018-03-11T13:14:09.029Z,18.10
2018-03-11T13:17:19.965Z,18.10
2018-03-11T13:24:09.634Z,18.00
2018-03-11T13:27:19.659Z,18.00
2018-03-11T13:30:30.526Z,17.90
2018-03-11T13:33:52.664Z,17.80
2018-03-11T13:37:02.698Z,17.80
2018-03-11T13:40:24.573Z,17.80
2018-03-11T13:43:34.342Z,17.90
2018-03-11T13:46:55.987Z,17.80
2018-03-11T13:50:07.523Z,17.70
2018-03-11T13:53:30.130Z,17.70
2018-03-11T13:56:41.694Z,17.70
2018-03-11T13:59:51.764Z,17.70
2018-03-11T14:03:01.694Z,17.70
2018-03-11T14:06:12.895Z,17.70
2018-03-11T14:09:24.662Z,17.70
2018-03-11T14:12:35.064Z,17.80
2018-03-11T14:15:46.170Z,17.80
2018-03-11T14:18:57.359Z,17.60
2018-03-11T14:22:07.820Z,17.50
2018-03-11T14:25:17.747Z,17.40
2018-03-11T14:28:29.706Z,17.40
2018-03-11T14:31:41.036Z,17.40
2018-03-11T14:34:51.458Z,17.50
2018-03-11T14:38:01.781Z,17.50
2018-03-11T14:41:11.735Z,17.50
2018-03-11T14:44:21.695Z,17.60
2018-03-11T14:47:33.141Z,17.40
2018-03-11T14:50:43.250Z,17.40
2018-03-11T14:53:55.143Z,17.30
2018-03-11T14:57:05.997Z,17.30
2018-03-11T15:00:16.330Z,17.20
2018-03-11T15:03:27.272Z,17.10
2018-03-11T15:06:37.425Z,17.10
2018-03-11T15:09:48.100Z,17.00
2018-03-11T15:12:59.048Z,16.80
2018-03-11T15:16:09.736Z,16.80
2018-03-11T15:19:19.947Z,16.70
2018-03-11T15:22:30.108Z,16.70
2018-03-11T15:25:40.247Z,16.60
2018-03-11T15:28:50.723Z,16.60
2018-03-11T15:32:01.031Z,16.50
2018-03-11T15:35:11.962Z,16.50
2018-03-11T15:38:22.101Z,16.50
2018-03-11T15:41:32.161Z,16.60
2018-03-11T15:44:43.003Z,16.50
2018-03-11T15:47:53.460Z,16.40
2018-03-11T15:51:03.418Z,16.30
2018-03-11T15:54:14.174Z,16.20
2018-03-11T15:57:25.420Z,16.20
2018-03-11T16:00:36.422Z,16.10
2018-03-11T16:03:46.392Z,16.00
2018-03-11T16:06:56.859Z,15.80
2018-03-11T16:10:08.521Z,15.70
2018-03-11T16:13:18.743Z,15.70
2018-03-11T16:16:29.674Z,15.60
2018-03-11T16:19:39.874Z,15.60
2018-03-11T16:22:49.902Z,15.50
2018-03-11T16:25:59.984Z,15.40
2018-03-11T16:29:11.122Z,15.20
2018-03-11T16:32:21.975Z,15.20
2018-03-11T16:35:33.921Z,15.00
2018-03-11T16:38:44.047Z,14.90
2018-03-11T16:41:54.216Z,14.90
2018-03-11T16:45:04.346Z,14.80
2018-03-11T16:48:14.329Z,14.70
2018-03-11T16:51:24.326Z,14.50
2018-03-11T16:54:34.480Z,14.20
2018-03-11T16:57:44.650Z,14.10
2018-03-11T17:00:55.322Z,13.90
2018-03-11T17:04:05.996Z,13.50
2018-03-11T17:07:16.312Z,13.50
2018-03-11T17:10:26.219Z,13.50
2018-03-11T17:13:36.132Z,13.30
2018-03-11T17:16:47.811Z,12.60
2018-03-11T17:19:58.033Z,12.60
2018-03-11T17:23:08.863Z,12.60
2018-03-11T17:26:19.907Z,12.40
2018-03-11T17:29:30.044Z,12.30
2018-03-11T17:32:41.388Z,12.00
2018-03-11T17:35:52.975Z,12.00
2018-03-11T17:39:03.782Z,11.90
2018-03-11T17:42:14.173Z,11.90
2018-03-11T17:45:24.679Z,11.80
2018-03-11T17:48:34.614Z,11.70
2018-03-11T17:51:45.091Z,11.70
2018-03-11T17:54:56.527Z,11.70
2018-03-11T17:58:06.801Z,11.70
2018-03-11T18:01:16.863Z,11.80
2018-03-11T18:04:28.241Z,11.70
2018-03-11T18:07:40.250Z,11.60
2018-03-11T18:10:50.478Z,11.60
2018-03-11T18:14:00.421Z,11.50
2018-03-11T18:17:10.395Z,11.60
2018-03-11T18:20:20.331Z,11.60
2018-03-11T18:23:31.818Z,11.60
2018-03-11T18:26:42.235Z,11.50
2018-03-11T18:29:52.640Z,11.50
2018-03-11T18:33:03.875Z,11.10
2018-03-11T18:36:14.068Z,11.10
2018-03-11T18:39:25.608Z,11.00
2018-03-11T18:42:36.860Z,10.90
2018-03-11T18:45:47.436Z,10.90
2018-03-11T18:48:57.837Z,10.90
2018-03-11T18:52:09.352Z,11.00
2018-03-11T18:55:20.222Z,10.90
2018-03-11T18:58:31.174Z,10.80
2018-03-11T19:01:42.277Z,10.70
2018-03-11T19:04:52.597Z,10.70
2018-03-11T19:08:02.546Z,10.60
2018-03-11T19:11:12.910Z,10.60
2018-03-11T19:14:23.092Z,10.50
2018-03-11T19:17:33.320Z,10.50
2018-03-11T19:20:43.510Z,10.40
2018-03-11T19:23:53.827Z,10.50
2018-03-11T19:27:05.194Z,10.50
2018-03-11T19:30:15.845Z,10.50
2018-03-11T19:33:26.756Z,10.50
2018-03-11T19:36:36.727Z,10.50
2018-03-11T19:39:46.882Z,10.60
2018-03-11T19:42:57.071Z,10.60
2018-03-11T19:46:08.130Z,10.60
2018-03-11T19:49:18.298Z,10.60
2018-03-11T19:52:28.448Z,10.60
2018-03-11T19:55:38.427Z,10.60
2018-03-11T19:58:48.545Z,10.50
2018-03-11T20:01:58.506Z,10.50
2018-03-11T20:05:09.022Z,10.50
2018-03-11T20:08:20.472Z,10.50
2018-03-11T20:11:31.224Z,10.40
2018-03-11T20:14:41.947Z,10.40
2018-03-11T20:17:52.336Z,10.40
2018-03-11T20:21:02.950Z,10.40
2018-03-11T20:24:13.714Z,10.40
2018-03-11T20:27:23.869Z,10.30
2018-03-11T20:30:33.825Z,10.30
2018-03-11T20:33:43.899Z,10.30
2018-03-11T20:36:54.976Z,10.20
2018-03-11T20:40:04.955Z,10.20
2018-03-11T20:43:15.266Z,10.20
2018-03-11T20:46:25.849Z,10.10
2018-03-11T20:49:36.023Z,10.00
2018-03-11T20:52:46.284Z,10.00
2018-03-11T20:55:56.392Z,9.90
2018-03-11T20:59:07.277Z,9.90
2018-03-11T21:02:18.022Z,9.80
2018-03-11T21:05:28.776Z,9.90
2018-03-11T21:08:39.108Z,9.90
2018-03-11T21:11:49.623Z,9.90
2018-03-11T21:14:59.591Z,9.90
2018-03-11T21:18:10.957Z,9.80
2018-03-11T21:21:20.806Z,9.80
2018-03-11T21:24:31.989Z,9.80
2018-03-11T21:27:42.595Z,9.80
2018-03-11T21:30:52.818Z,9.70
2018-03-11T21:34:03.043Z,9.60
2018-03-11T21:37:13.418Z,9.60
2018-03-11T21:40:23.692Z,9.60
2018-03-11T21:43:34.478Z,9.60
2018-03-11T21:46:45.826Z,9.60
2018-03-11T21:49:56.241Z,9.60
2018-03-11T21:53:07.013Z,9.40
2018-03-11T21:56:16.872Z,9.40
2018-03-11T21:59:26.793Z,9.40
2018-03-11T22:02:36.623Z,9.40
2018-03-11T22:05:47.468Z,9.30
2018-03-11T22:08:57.868Z,9.30
2018-03-11T22:12:08.017Z,9.40
2018-03-11T22:15:18.087Z,9.40
2018-03-11T22:18:28.068Z,9.40
2018-03-11T22:21:37.968Z,9.40
2018-03-11T22:24:48.193Z,9.30
2018-03-11T22:27:58.958Z,9.40
2018-03-11T22:31:09.325Z,9.40
2018-03-11T22:34:20.074Z,9.40
2018-03-11T22:37:30.095Z,9.40
2018-03-11T22:40:40.640Z,9.30
2018-03-11T22:43:51.520Z,9.30
2018-03-11T22:47:01.657Z,9.20
2018-03-11T22:50:11.772Z,9.20
2018-03-11T22:53:21.748Z,9.20
2018-03-11T22:56:31.668Z,9.10
2018-03-11T22:59:41.980Z,9.00
2018-03-11T23:02:51.932Z,9.10
2018-03-11T23:06:01.709Z,9.10
2018-03-11T23:09:12.510Z,9.00
2018-03-11T23:12:22.687Z,9.00
2018-03-11T23:15:32.671Z,9.00
2018-03-11T23:18:55.055Z,9.00
2018-03-11T23:22:04.891Z,8.90
2018-03-11T23:25:14.914Z,8.80
2018-03-11T23:28:25.825Z,8.70
2018-03-11T23:31:36.499Z,8.70
2018-03-11T23:34:46.900Z,8.70
2018-03-11T23:37:56.849Z,8.60
2018-03-11T23:41:07.115Z,8.50
2018-03-11T23:44:17.831Z,8.50
2018-03-11T23:47:27.831Z,8.50
2018-03-11T23:50:38.078Z,8.40
2018-03-11T23:53:48.074Z,8.20
2018-03-11T23:56:58.492Z,8.20
